Aeroporto :
LOGIN :

Iscrizione | Disclaimer

   EN    FR    IT 

 










Sommario :    VFR   VFR Marginale   IFR   IFR Intensivo   IFR Molto Intensivo
Visibilità : 
Base nubi : 
>= 8 km
>= 3000ft
5 / 8 km
1000 / 3000 ft
1500m / 5 km
500 / 1000 ft
800 / 1500m
200 / 500 ft
< 800m
< 200 ft
Simboli :   Temporali  Nebbia  Neve Forte  Precipitazioni Forti  Vento > 20 kt
SIGMETs :   Varie  Temporali  Ghiacco  Turbolenza  Onda orograficha  Ceneri Vulcaniche






- Altitudine del aeroporto : 194 ft


EBCV - Chièvres

ULTIMO METAR :
  • 301855Z AUTO 22015KT //// OVC003/// 04/03 Q1019 YLO

METARs OBSOLETI :
  • 301825Z AUTO 21015KT //// OVC003/// 04/03 Q1019 YLO
  • 301755Z AUTO 21013KT //// OVC004/// 04/03 Q1020 YLO
  • 301725Z AUTO 21014KT //// OVC004/// 03/03 Q1020 YLO
  • 301655Z AUTO 20016KT //// OVC004/// 03/03 Q1020 YLO

TAF TAF EBCV
Valido dal 30 a 19 ore il 01 a 07 ore UTC


301541Z 3019/0107 25010KT 4500 BKN003 OVC012
TEMPO 3019/0107 2500 -RA -DZ -RADZ BKN002 OVC010
TEMPO 0102/0107 32015KT 5000 BR BKN008 OVC014 BY EBWM



MetMap, La meteo Aeronautica in un colpo d'occhio ! - Copyright ORBIFLY Dicembre 2007 - Disclaimer

ORBIFLY MET'MAP TEAM :

Programmazione e sviluppo : Alexandra Zaïnal
Concezione : Baudouin d'Aumeries
Aiuto per la programmazione : Marc-Olivier Méhu
Supporto tecnico e logistico : Manuel Goepfert
Aiuto per la traduzione : Arnaldo La Scala

Contatto : metmap@orbifly.com




FONTI E CREDITI :

   NOAA